Time;durP1;ratioP1;P1;durP2;ratioP2;P2;SDS_P1;SDS_P2;PMS_P1;PMS_P2;Temp;Humidity;BMP_temperature;BMP_pressure;BME280_temperature;BME280_humidity;BME280_pressure;Samples;Min_cycle;Max_cycle;Signal;HPM_P1;HPM_P2
2021/05/20 00:00:00;;;;;;;5.00;4.50;;;;;;;12.40;100.00;99043.69;1660480;86;21050;-69
2021/05/20 00:02:27;;;;;;;6.83;4.35;;;;;;;12.37;100.00;99044.09;1660450;86;21081;-70
2021/05/20 00:04:53;;;;;;;4.35;3.30;;;;;;;12.34;100.00;99045.33;1660619;86;21038;-70
2021/05/20 00:07:20;;;;;;;3.17;2.98;;;;;;;12.31;100.00;99047.95;1660500;86;21563;-71
2021/05/20 00:09:49;;;;;;;3.12;2.83;;;;;;;12.29;100.00;99047.33;1660308;86;21634;-70
2021/05/20 00:12:17;;;;;;;4.10;2.50;;;;;;;12.27;100.00;99049.91;1660455;86;21583;-71
2021/05/20 00:14:45;;;;;;;3.65;2.65;;;;;;;12.23;100.00;99041.89;1660409;86;21118;-71
2021/05/20 00:17:13;;;;;;;2.80;2.60;;;;;;;12.20;100.00;99053.12;1660402;86;21117;-70
2021/05/20 00:19:40;;;;;;;2.10;1.95;;;;;;;12.16;100.00;99044.58;1660482;86;21137;-71
2021/05/20 00:22:08;;;;;;;2.10;1.90;;;;;;;12.12;100.00;99046.04;1660315;86;21614;-69
2021/05/20 00:24:35;;;;;;;1.87;1.77;;;;;;;12.10;100.00;99056.25;1660420;85;21556;-69
2021/05/20 00:27:04;;;;;;;1.87;1.77;;;;;;;12.08;100.00;99052.39;1660472;86;21054;-70
2021/05/20 00:29:31;;;;;;;2.33;2.10;;;;;;;12.06;100.00;99055.00;1660318;86;21094;-70
2021/05/20 00:31:57;;;;;;;3.00;2.00;;;;;;;12.06;100.00;99051.77;1660384;86;21058;-70
2021/05/20 00:34:25;;;;;;;3.47;1.75;;;;;;;12.06;100.00;99059.89;1660519;86;21082;-69
2021/05/20 00:36:51;;;;;;;1.80;1.70;;;;;;;12.05;100.00;99052.79;1660356;85;21098;-70
2021/05/20 00:39:17;;;;;;;1.87;1.60;;;;;;;12.06;100.00;99052.30;1660485;85;21034;-70
2021/05/20 00:41:44;;;;;;;2.45;1.40;;;;;;;12.03;100.00;99050.81;1660377;86;21069;-70
2021/05/20 00:44:11;;;;;;;2.00;1.10;;;;;;;12.01;100.00;99052.89;1660636;86;21090;-70
2021/05/20 00:46:38;;;;;;;3.00;1.20;;;;;;;11.98;100.00;99047.87;1660277;86;21540;-70
2021/05/20 00:49:09;;;;;;;1.27;0.95;;;;;;;11.98;100.00;99049.76;1660348;86;21062;-69
2021/05/20 00:51:33;;;;;;;0.75;0.75;;;;;;;11.96;100.00;99052.67;1659407;85;21109;-69
2021/05/20 00:54:00;;;;;;;1.32;0.80;;;;;;;11.91;100.00;99057.86;1652922;87;21061;-69
2021/05/20 00:56:26;;;;;;;1.10;0.68;;;;;;;11.89;100.00;99066.69;1651563;87;21023;-70
2021/05/20 00:58:53;;;;;;;0.88;0.88;;;;;;;11.87;100.00;99058.76;1651584;87;21106;-71
2021/05/20 01:01:21;;;;;;;1.05;0.98;;;;;;;11.86;100.00;99053.54;1651459;87;21543;-70
2021/05/20 01:03:48;;;;;;;2.47;0.80;;;;;;;11.82;100.00;99058.53;1610330;87;21062;-72
2021/05/20 01:06:15;;;;;;;1.32;0.90;;;;;;;11.81;100.00;99056.87;1651647;87;21058;-70
2021/05/20 01:08:42;;;;;;;1.42;0.88;;;;;;;11.80;100.00;99059.25;1632647;87;21057;-69
2021/05/20 01:11:08;;;;;;;0.93;0.93;;;;;;;11.78;100.00;99056.75;1651725;87;21058;-70
2021/05/20 01:13:36;;;;;;;0.90;0.90;;;;;;;11.78;100.00;99066.75;1651640;87;21042;-72
2021/05/20 01:16:11;;;;;;;0.98;0.72;;;;;;;11.76;100.00;99060.18;1651609;87;21115;-69
2021/05/20 01:18:40;;;;;;;1.00;0.80;;;;;;;11.74;100.00;99064.97;1677264;85;21530;-69
2021/05/20 01:21:07;;;;;;;0.78;0.60;;;;;;;11.72;100.00;99073.82;1679292;85;21087;-69
2021/05/20 01:23:33;;;;;;;1.55;0.53;;;;;;;11.69;100.00;99074.22;1646836;87;21204;-70
2021/05/20 01:26:02;;;;;;;0.88;0.78;;;;;;;11.68;100.00;99069.00;1679265;85;21595;-70
2021/05/20 01:28:32;;;;;;;0.80;0.62;;;;;;;11.66;100.00;99073.26;1679064;85;21593;-71
2021/05/20 01:30:58;;;;;;;0.50;0.50;;;;;;;11.65;100.00;99071.61;1679215;85;21067;-71
2021/05/20 01:33:27;;;;;;;0.53;0.50;;;;;;;11.64;100.00;99075.86;1646731;87;21139;-69
2021/05/20 01:35:53;;;;;;;1.02;0.93;;;;;;;11.62;100.00;99074.70;1679304;85;21067;-70
2021/05/20 01:40:56;;;;;;;1.42;0.85;;;;;;;11.60;100.00;99086.27;1679307;85;21083;-71
2021/05/20 01:43:23;;;;;;;1.50;1.05;;;;;;;11.59;100.00;99094.05;1646699;87;21563;-70
2021/05/20 01:46:00;;;;;;;3.55;1.70;;;;;;;11.59;100.00;99092.17;1679303;85;21066;-71
2021/05/20 01:48:36;;;;;;;1.70;1.60;;;;;;;11.59;100.00;99085.41;1679187;85;21112;-70
2021/05/20 01:51:17;;;;;;;2.70;2.35;;;;;;;11.57;100.00;99087.48;1679386;84;21083;-70
2021/05/20 01:53:45;;;;;;;8.10;2.87;;;;;;;11.56;100.00;99083.62;1620949;88;21083;-70
2021/05/20 01:56:15;;;;;;;6.25;3.10;;;;;;;11.55;100.00;99090.91;1670907;86;21529;-71
2021/05/20 01:58:42;;;;;;;5.45;3.65;;;;;;;11.56;100.00;99098.51;1675539;86;21027;-70
2021/05/20 02:01:10;;;;;;;7.50;4.37;;;;;;;11.53;100.00;99093.52;1674797;86;21445;-70
2021/05/20 02:03:37;;;;;;;7.05;4.35;;;;;;;11.52;100.00;99108.91;1675433;86;21039;-70
2021/05/20 02:06:05;;;;;;;5.97;4.00;;;;;;;11.51;100.00;99105.89;1675519;86;21067;-72
2021/05/20 02:08:33;;;;;;;6.92;4.35;;;;;;;11.53;100.00;99120.59;1675482;86;21051;-70
2021/05/20 02:11:04;;;;;;;6.95;4.60;;;;;;;11.52;100.00;99118.38;1675555;84;21071;-70
2021/05/20 02:13:31;;;;;;;6.10;4.25;;;;;;;11.51;100.00;99119.93;1675390;86;21632;-70
2021/05/20 02:15:58;;;;;;;6.08;4.08;;;;;;;11.52;100.00;99118.91;1661259;86;21062;-70
2021/05/20 02:18:26;;;;;;;7.05;4.00;;;;;;;11.52;100.00;99122.97;1655770;87;21118;-71
2021/05/20 02:20:53;;;;;;;5.37;4.03;;;;;;;11.51;100.00;99122.14;1655726;87;21112;-69
2021/05/20 02:23:20;;;;;;;9.30;4.05;;;;;;;11.51;100.00;99127.55;1655889;87;21393;-70
2021/05/20 02:25:46;;;;;;;11.38;4.00;;;;;;;11.49;100.00;99123.36;1655720;87;21049;-70
2021/05/20 02:28:13;;;;;;;5.90;3.83;;;;;;;11.49;100.00;99128.27;1655732;87;21105;-71
2021/05/20 02:30:40;;;;;;;6.78;3.95;;;;;;;11.50;100.00;99137.22;1655712;87;21677;-72
2021/05/20 02:33:07;;;;;;;6.37;3.90;;;;;;;11.49;100.00;99132.83;1655721;87;21082;-71
2021/05/20 02:35:34;;;;;;;4.28;3.52;;;;;;;11.47;100.00;99129.49;1655766;87;21069;-70
2021/05/20 02:38:00;;;;;;;4.55;3.17;;;;;;;11.43;100.00;99129.58;1655659;87;21626;-70
2021/05/20 02:40:27;;;;;;;4.45;3.47;;;;;;;11.40;100.00;99120.83;1655736;87;21014;-71
2021/05/20 02:42:54;;;;;;;6.95;3.50;;;;;;;11.41;100.00;99124.36;1655780;87;21046;-71
2021/05/20 02:45:23;;;;;;;3.70;3.30;;;;;;;11.39;100.00;99127.27;1655635;87;21626;-69
2021/05/20 02:47:51;;;;;;;3.30;3.00;;;;;;;11.39;100.00;99125.09;1655671;87;21590;-70
2021/05/20 02:50:19;;;;;;;4.65;2.92;;;;;;;11.37;100.00;99121.22;1655606;87;21133;-70
2021/05/20 02:52:47;;;;;;;5.67;3.00;;;;;;;11.37;100.00;99132.57;1673714;84;21072;-69
2021/05/20 02:55:17;;;;;;;3.22;2.70;;;;;;;11.35;100.00;99131.41;1690734;84;21039;-70
2021/05/20 02:57:48;;;;;;;3.87;2.85;;;;;;;11.33;100.00;99130.78;1650429;86;21092;-70
2021/05/20 03:00:17;;;;;;;5.15;2.85;;;;;;;11.32;100.00;99138.56;1650036;85;21111;-71
2021/05/20 03:02:48;;;;;;;2.77;2.58;;;;;;;11.31;100.00;99136.05;1650506;87;21119;-71
2021/05/20 03:05:15;;;;;;;4.45;2.83;;;;;;;11.32;100.00;99141.80;1650305;86;21565;-69
2021/05/20 03:07:41;;;;;;;3.58;3.00;;;;;;;11.32;100.00;99134.51;1650257;87;21123;-70
2021/05/20 03:10:09;;;;;;;4.15;2.98;;;;;;;11.32;100.00;99141.27;1650378;87;21156;-70
2021/05/20 03:12:35;;;;;;;5.60;2.90;;;;;;;11.34;100.00;99137.02;1650570;86;21048;-70
2021/05/20 03:15:03;;;;;;;4.40;3.22;;;;;;;11.35;100.00;99132.77;1650476;87;21016;-71
2021/05/20 03:17:30;;;;;;;4.92;2.87;;;;;;;11.36;100.00;99136.30;1650539;87;21104;-71
2021/05/20 03:19:56;;;;;;;4.83;3.08;;;;;;;11.36;100.00;99130.89;1650498;87;21116;-70
2021/05/20 03:22:23;;;;;;;5.22;3.30;;;;;;;11.37;100.00;99129.87;1650291;87;21665;-70
2021/05/20 03:24:51;;;;;;;3.22;2.90;;;;;;;11.39;100.00;99134.56;1650671;87;21128;-71
2021/05/20 03:27:18;;;;;;;5.05;2.90;;;;;;;11.40;100.00;99132.16;1650544;87;21108;-71
2021/05/20 03:29:45;;;;;;;3.90;2.90;;;;;;;11.39;100.00;99139.97;1650371;85;21063;-70
2021/05/20 03:32:13;;;;;;;3.33;2.90;;;;;;;11.37;100.00;99130.69;1650654;87;21174;-71
2021/05/20 03:34:39;;;;;;;5.90;2.70;;;;;;;11.38;100.00;99132.37;1650533;87;21056;-70
2021/05/20 03:37:07;;;;;;;6.03;2.55;;;;;;;11.39;100.00;99127.27;1650464;87;21084;-70
2021/05/20 03:39:34;;;;;;;2.72;2.42;;;;;;;11.43;100.00;99126.88;1650571;87;21123;-71
2021/05/20 03:42:01;;;;;;;5.83;2.40;;;;;;;11.48;100.00;99137.95;1650410;87;21139;-69
2021/05/20 03:44:28;;;;;;;2.08;1.87;;;;;;;11.56;100.00;99150.80;1650509;87;21157;-72
2021/05/20 03:46:55;;;;;;;3.15;2.00;;;;;;;11.65;100.00;99144.72;1652210;84;21071;-70
2021/05/20 03:49:22;;;;;;;3.10;2.02;;;;;;;11.75;100.00;99142.45;1706669;84;21600;-70
2021/05/20 03:51:48;;;;;;;2.80;1.70;;;;;;;11.83;100.00;99148.73;1689912;84;21114;-70
2021/05/20 03:54:15;;;;;;;6.60;1.80;;;;;;;11.86;100.00;99150.52;1650282;87;21551;-70
2021/05/20 03:56:42;;;;;;;1.98;1.70;;;;;;;11.92;100.00;99153.00;1648870;87;21122;-69
2021/05/20 03:59:09;;;;;;;2.08;1.87;;;;;;;11.94;100.00;99158.52;1648965;87;21055;-70
2021/05/20 04:01:38;;;;;;;2.05;1.85;;;;;;;11.95;100.00;99158.85;1648956;87;21094;-69
2021/05/20 04:04:05;;;;;;;2.02;1.82;;;;;;;11.97;100.00;99162.72;1648717;87;21548;-68
2021/05/20 04:06:32;;;;;;;3.52;1.90;;;;;;;11.96;100.00;99170.52;1648862;87;21039;-70
2021/05/20 04:08:58;;;;;;;4.53;1.90;;;;;;;11.94;100.00;99173.95;1648798;87;21094;-69
2021/05/20 04:11:26;;;;;;;2.62;1.92;;;;;;;11.95;100.00;99183.23;1648946;87;21050;-70
2021/05/20 04:13:54;;;;;;;2.45;1.92;;;;;;;11.94;100.00;99186.97;1648913;87;21107;-70
2021/05/20 04:16:24;;;;;;;4.37;2.15;;;;;;;11.93;100.00;99191.23;1648801;87;21676;-69
2021/05/20 04:18:49;;;;;;;2.72;1.72;;;;;;;11.91;100.00;99188.72;1648856;87;21098;-70
2021/05/20 04:21:16;;;;;;;2.60;1.70;;;;;;;11.89;100.00;99192.64;1649023;87;21556;-71
2021/05/20 04:23:44;;;;;;;1.40;1.30;;;;;;;11.87;100.00;99194.20;1648853;87;21547;-69
2021/05/20 04:26:11;;;;;;;2.80;1.80;;;;;;;11.90;100.00;99195.68;1649022;87;21070;-69
2021/05/20 04:28:39;;;;;;;1.52;1.27;;;;;;;11.91;100.00;99191.42;1648819;87;21520;-69
2021/05/20 04:31:05;;;;;;;1.62;1.32;;;;;;;11.95;100.00;99194.56;1648593;87;21030;-71
2021/05/20 04:33:32;;;;;;;3.92;1.60;;;;;;;11.98;100.00;99194.70;1648639;87;21043;-70
2021/05/20 04:35:59;;;;;;;3.80;1.80;;;;;;;12.00;100.00;99193.45;1648638;87;21119;-69
2021/05/20 04:38:26;;;;;;;2.87;2.20;;;;;;;12.02;100.00;99194.08;1648617;87;21439;-71
2021/05/20 04:40:52;;;;;;;2.62;1.95;;;;;;;12.00;100.00;99202.93;1648849;87;21111;-69
2021/05/20 04:43:19;;;;;;;3.45;1.32;;;;;;;11.96;100.00;99195.73;1648687;87;21070;-70
2021/05/20 04:45:46;;;;;;;2.00;1.52;;;;;;;11.98;100.00;99207.72;1648652;87;21062;-70
2021/05/20 04:48:13;;;;;;;4.53;1.92;;;;;;;12.01;100.00;99198.38;1648677;87;21599;-70
2021/05/20 04:50:41;;;;;;;6.55;1.90;;;;;;;12.08;100.00;99203.30;1648660;87;21122;-70
2021/05/20 04:53:09;;;;;;;3.33;1.40;;;;;;;12.15;100.00;99206.34;1669510;85;21090;-70
2021/05/20 04:55:36;;;;;;;2.95;1.40;;;;;;;12.22;100.00;99202.84;1677496;85;21063;-70
2021/05/20 04:58:03;;;;;;;2.65;1.62;;;;;;;12.26;100.00;99202.75;1676862;85;21520;-69
2021/05/20 05:00:30;;;;;;;1.45;1.35;;;;;;;12.28;100.00;99221.00;1676931;85;21079;-71
2021/05/20 05:02:56;;;;;;;2.05;1.52;;;;;;;12.30;100.00;99210.25;1677074;85;21042;-71
2021/05/20 05:05:25;;;;;;;3.67;1.45;;;;;;;12.38;100.00;99206.55;1676772;85;21553;-70
2021/05/20 05:07:52;;;;;;;1.50;1.40;;;;;;;12.43;100.00;99209.48;1676819;85;21063;-71
2021/05/20 05:10:19;;;;;;;2.70;1.20;;;;;;;12.51;100.00;99214.71;1676758;85;21122;-74
2021/05/20 05:12:45;;;;;;;3.20;1.60;;;;;;;12.53;100.00;99209.91;1676752;85;21111;-72
2021/05/20 05:15:14;;;;;;;20.05;15.23;;;;;;;12.57;100.00;99200.88;1676711;85;21091;-72
2021/05/20 05:17:41;;;;;;;13.72;9.15;;;;;;;12.64;100.00;99203.09;1676945;85;21565;-70
2021/05/20 05:20:08;;;;;;;11.08;6.05;;;;;;;12.72;100.00;99206.13;1676985;85;21051;-73
2021/05/20 05:22:35;;;;;;;2.67;2.40;;;;;;;12.82;100.00;99210.63;1677025;85;21079;-71
2021/05/20 05:25:03;;;;;;;44.35;39.58;;;;;;;12.89;100.00;99207.91;1676977;85;21119;-70
2021/05/20 05:27:31;;;;;;;9.28;5.22;;;;;;;12.96;100.00;99211.49;1678564;85;21154;-69
2021/05/20 05:29:59;;;;;;;5.50;3.85;;;;;;;13.02;100.00;99202.52;1677937;84;21165;-73
2021/05/20 05:32:27;;;;;;;15.32;8.45;;;;;;;13.09;100.00;99198.45;1678369;85;21576;-72
2021/05/20 05:34:54;;;;;;;5.12;3.77;;;;;;;13.18;100.00;99205.34;1678298;85;21095;-72
2021/05/20 05:37:21;;;;;;;4.10;1.82;;;;;;;13.21;100.00;99208.14;1678402;85;21090;-73
2021/05/20 05:39:48;;;;;;;82.40;72.03;;;;;;;13.30;100.00;99203.67;1678367;85;21007;-74
2021/05/20 05:42:15;;;;;;;5.58;4.03;;;;;;;13.48;100.00;99199.52;1678501;85;21539;-73
2021/05/20 05:44:43;;;;;;;3.30;2.10;;;;;;;13.64;100.00;99198.24;1678433;84;21103;-71
2021/05/20 05:47:11;;;;;;;3.70;2.55;;;;;;;13.85;100.00;99187.11;1654464;85;21233;-70
2021/05/20 05:49:44;;;;;;;9.45;6.22;;;;;;;13.98;100.00;99184.87;1678060;84;21102;-72
2021/05/20 05:52:11;;;;;;;1.90;1.80;;;;;;;14.10;100.00;99180.97;1677979;85;21087;-72
2021/05/20 05:54:39;;;;;;;5.50;2.10;;;;;;;14.24;100.00;99168.16;1683429;84;21027;-73
2021/05/20 05:57:06;;;;;;;22.93;14.43;;;;;;;14.36;100.00;99167.80;1704734;84;21079;-71
2021/05/20 05:59:32;;;;;;;15.15;8.38;;;;;;;14.50;100.00;99167.70;1704655;84;21023;-70
2021/05/20 06:01:59;;;;;;;4.97;3.70;;;;;;;14.61;100.00;99167.88;1704684;84;21081;-71
2021/05/20 06:04:27;;;;;;;3.95;2.75;;;;;;;14.75;100.00;99155.54;1704615;84;21026;-70
2021/05/20 06:06:54;;;;;;;5.35;2.77;;;;;;;14.96;100.00;99159.28;1703675;84;21043;-68
2021/05/20 06:09:23;;;;;;;3.67;2.90;;;;;;;15.13;100.00;99162.27;1704193;84;21055;-68
2021/05/20 06:11:49;;;;;;;4.47;2.30;;;;;;;15.36;100.00;99154.02;1682735;84;21055;-71
2021/05/20 06:14:17;;;;;;;6.15;3.08;;;;;;;15.37;100.00;99167.41;1682657;84;21039;-73
2021/05/20 06:16:45;;;;;;;4.55;2.55;;;;;;;15.38;100.00;99166.34;1704436;84;21074;-72
2021/05/20 06:19:13;;;;;;;23.38;16.07;;;;;;;15.47;100.00;99168.25;1704661;84;21035;-71
2021/05/20 06:21:40;;;;;;;8.75;5.80;;;;;;;15.59;100.00;99171.08;1704723;84;21063;-74
2021/05/20 06:24:10;;;;;;;5.33;3.67;;;;;;;15.83;100.00;99172.63;1691656;84;21047;-75
2021/05/20 06:26:37;;;;;;;17.05;12.25;;;;;;;16.14;100.00;99169.75;1674025;86;21540;-72
2021/05/20 06:29:04;;;;;;;11.22;7.05;;;;;;;16.35;100.00;99162.16;1661250;86;21054;-73
2021/05/20 06:31:32;;;;;;;4.08;3.00;;;;;;;16.44;100.00;99162.13;1653058;87;21155;-72
2021/05/20 06:33:59;;;;;;;4.85;3.50;;;;;;;16.44;100.00;99162.13;1653615;86;21051;-69
2021/05/20 06:36:26;;;;;;;11.63;7.42;;;;;;;16.27;100.00;99164.69;1655524;87;21071;-71
2021/05/20 06:38:53;;;;;;;17.05;10.10;;;;;;;16.07;100.00;99170.36;1655565;87;21083;-70
2021/05/20 06:41:20;;;;;;;5.37;4.40;;;;;;;16.06;100.00;99178.26;1655633;87;21010;-69
2021/05/20 06:43:47;;;;;;;3.83;2.47;;;;;;;16.23;100.00;99158.00;1655784;87;21029;-70
2021/05/20 06:46:15;;;;;;;4.83;2.67;;;;;;;16.45;100.00;99155.63;1654943;87;21071;-71
2021/05/20 06:48:42;;;;;;;10.05;5.70;;;;;;;16.98;100.00;99155.91;1653768;87;21551;-69
2021/05/20 06:51:09;;;;;;;7.53;4.47;;;;;;;16.98;100.00;99155.91;1654597;85;21080;-74
2021/05/20 06:53:37;;;;;;;5.87;3.92;;;;;;;17.20;100.00;99163.85;1655389;85;21143;-71
2021/05/20 06:56:08;;;;;;;5.78;3.87;;;;;;;17.19;100.00;99157.25;1653399;87;21098;-69
2021/05/20 07:01:20;;;;;;;8.15;3.85;;;;;;;17.15;100.00;99160.99;1655320;87;21028;-72
2021/05/20 07:03:47;;;;;;;8.28;5.33;;;;;;;17.32;100.00;99170.70;1654495;87;21083;-73
2021/05/20 07:06:13;;;;;;;8.15;5.20;;;;;;;17.49;100.00;99165.34;1655056;87;21023;-72
2021/05/20 07:08:41;;;;;;;3.50;3.20;;;;;;;17.56;100.00;99167.97;1655506;87;21119;-71
2021/05/20 07:11:08;;;;;;;4.55;2.70;;;;;;;17.65;100.00;99161.92;1655972;86;21055;-71
2021/05/20 07:13:37;;;;;;;7.05;3.65;;;;;;;17.55;100.00;99171.78;1640597;86;21075;-72
2021/05/20 07:16:04;;;;;;;4.80;2.75;;;;;;;17.32;100.00;99169.87;1655543;87;21047;-71
2021/05/20 07:18:30;;;;;;;4.45;3.40;;;;;;;17.14;100.00;99182.56;1655773;85;21081;-70
2021/05/20 07:20:58;;;;;;;4.80;3.92;;;;;;;17.02;100.00;99185.27;1655735;87;21127;-72
2021/05/20 07:23:25;;;;;;;4.92;3.30;;;;;;;17.08;100.00;99191.68;1649792;85;21045;-71
2021/05/20 07:25:53;;;;;;;6.28;3.10;;;;;;;17.31;100.00;99188.16;1641858;87;21019;-73
2021/05/20 07:28:22;;;;;;;5.80;3.52;;;;;;;17.46;100.00;99191.27;1655446;85;21675;-73
2021/05/20 07:30:49;;;;;;;5.95;3.75;;;;;;;17.46;100.00;99191.27;1655583;87;21545;-72
2021/05/20 07:33:16;;;;;;;3.87;3.05;;;;;;;17.42;100.00;99186.49;1669357;85;21683;-75
2021/05/20 07:35:43;;;;;;;4.53;3.50;;;;;;;17.35;100.00;99181.17;1656435;84;21086;-78
2021/05/20 07:38:11;;;;;;;3.05;2.85;;;;;;;17.42;100.00;99190.08;1655829;85;21092;-73
2021/05/20 07:40:38;;;;;;;4.25;2.77;;;;;;;17.58;100.00;99189.91;1655049;86;21051;-72
2021/05/20 07:43:04;;;;;;;3.90;2.67;;;;;;;17.74;100.00;99202.55;1655125;86;21130;-71
2021/05/20 07:45:31;;;;;;;4.85;3.83;;;;;;;17.97;100.00;99190.27;1660069;85;21553;-73
2021/05/20 07:47:58;;;;;;;3.33;2.55;;;;;;;18.22;100.00;99187.78;1658034;85;21111;-70
2021/05/20 07:50:26;;;;;;;7.90;6.22;;;;;;;18.32;100.00;99185.77;1655461;86;21083;-73
2021/05/20 07:52:53;;;;;;;4.72;3.35;;;;;;;18.47;100.00;99194.81;1656911;85;21189;-69
2021/05/20 07:55:20;;;;;;;11.12;5.30;;;;;;;18.73;100.00;99186.56;1652920;87;21020;-72
2021/05/20 07:57:47;;;;;;;4.53;3.35;;;;;;;19.05;100.00;99180.59;1680372;85;21039;-73
2021/05/20 08:00:16;;;;;;;5.17;3.83;;;;;;;19.25;100.00;99175.46;1681563;85;21590;-73
2021/05/20 08:02:50;;;;;;;5.65;3.22;;;;;;;19.14;100.00;99177.20;1680680;84;21136;-74
2021/05/20 08:07:54;;;;;;;4.55;3.77;;;;;;;19.03;100.00;99184.12;1687572;83;21079;-75
2021/05/20 08:12:44;;;;;;;14.28;5.67;;;;;;;19.30;100.00;99171.44;1670548;86;21137;-72
2021/05/20 08:15:11;;;;;;;5.65;2.10;;;;;;;19.29;100.00;99190.87;1654829;87;21093;-74
2021/05/20 08:17:40;;;;;;;6.78;3.00;;;;;;;19.48;100.00;99181.86;1672155;85;21059;-71
2021/05/20 08:20:08;;;;;;;7.05;3.80;;;;;;;19.74;100.00;99183.08;1650400;87;21082;-76
2021/05/20 08:22:37;;;;;;;8.70;5.25;;;;;;;19.87;100.00;99179.16;1679089;85;21086;-75
2021/05/20 08:25:07;;;;;;;4.03;2.87;;;;;;;19.84;100.00;99181.03;1679734;85;21066;-74
2021/05/20 08:27:34;;;;;;;6.45;4.10;;;;;;;19.78;100.00;99184.77;1679630;85;21082;-75
2021/05/20 08:30:00;;;;;;;7.15;4.37;;;;;;;19.84;100.00;99181.86;1681167;85;21047;-77
2021/05/20 08:32:27;;;;;;;11.03;3.90;;;;;;;19.97;100.00;99186.69;1679529;85;21035;-74
2021/05/20 08:34:54;;;;;;;66.37;55.17;;;;;;;20.14;100.00;99186.66;1673237;86;21055;-71
2021/05/20 08:37:21;;;;;;;10.25;5.03;;;;;;;20.28;100.00;99186.55;1682553;84;21081;-74
2021/05/20 08:39:48;;;;;;;8.18;4.30;;;;;;;20.10;100.00;99183.04;1690740;84;21027;-71
2021/05/20 08:42:15;;;;;;;7.08;2.65;;;;;;;19.82;100.00;99188.14;1694627;84;21086;-73
2021/05/20 08:44:42;;;;;;;4.10;3.22;;;;;;;19.60;100.00;99188.08;1681118;84;21023;-75
2021/05/20 08:47:11;;;;;;;7.58;5.00;;;;;;;19.46;100.00;99193.59;1695382;84;21720;-70
2021/05/20 08:49:44;;;;;;;6.92;3.67;;;;;;;19.33;100.00;99202.98;1676703;85;21159;-74
2021/05/20 08:52:12;;;;;;;5.85;3.65;;;;;;;19.39;100.00;99202.00;1653293;85;21770;-81
2021/05/20 08:54:38;;;;;;;4.40;3.83;;;;;;;19.58;100.00;99191.59;1657214;85;21570;-76
2021/05/20 08:57:05;;;;;;;8.38;3.52;;;;;;;19.81;100.00;99197.98;1629710;87;21701;-75
2021/05/20 08:59:32;;;;;;;5.50;2.72;;;;;;;19.95;100.00;99204.77;1645122;87;21095;-74
2021/05/20 09:02:00;;;;;;;9.53;3.92;;;;;;;19.90;100.00;99202.80;1653323;86;21660;-74
2021/05/20 09:04:27;;;;;;;5.05;4.00;;;;;;;;;;1641717;86;21100;-74
2021/05/20 09:07:04;;;;;;;4.40;3.83;;;;;;;19.52;100.00;99216.73;1614903;88;21078;-73
2021/05/20 09:09:34;;;;;;;9.00;5.42;;;;;;;19.35;100.00;99218.63;1602852;88;21143;-69
2021/05/20 09:11:59;;;;;;;4.50;3.95;;;;;;;19.27;100.00;99228.66;1582921;89;21194;-72
2021/05/20 09:14:41;;;;;;;10.88;3.83;;;;;;;19.27;100.00;99239.63;1603127;88;21138;-70
2021/05/20 09:17:19;;;;;;;8.33;3.62;;;;;;;19.27;100.00;99232.22;1582688;89;21086;-69
2021/05/20 09:19:59;;;;;;;6.83;3.50;;;;;;;19.19;100.00;99241.38;1602877;88;21100;-78
2021/05/20 09:22:29;;;;;;;8.33;5.10;;;;;;;19.11;100.00;99231.67;1602959;89;21069;-75
2021/05/20 09:25:00;;;;;;;6.15;4.70;;;;;;;19.16;100.00;99239.44;1602457;89;21610;-76
2021/05/20 09:27:44;;;;;;;6.37;4.75;;;;;;;19.30;100.00;99239.95;1594477;90;21573;-72
2021/05/20 09:30:18;;;;;;;10.30;3.77;;;;;;;19.40;100.00;99239.83;1597280;90;21073;-73
2021/05/20 09:32:53;;;;;;;2.98;2.58;;;;;;;19.66;100.00;99238.34;1600798;89;21089;-76
2021/05/20 09:35:29;;;;;;;11.45;6.53;;;;;;;19.95;100.00;99241.81;1594770;90;21092;-79
2021/05/20 09:38:10;;;;;;;19.52;13.15;;;;;;;20.14;100.00;99228.64;1575787;91;21162;-75
2021/05/20 09:40:55;;;;;;;16.00;10.45;;;;;;;20.14;100.00;99227.27;1567412;91;21065;-76
2021/05/20 09:43:29;;;;;;;7.55;4.33;;;;;;;20.32;100.00;99226.13;1550934;91;21147;-73
2021/05/20 09:45:55;;;;;;;5.92;4.15;;;;;;;20.55;100.00;99239.31;1566739;91;21037;-72
2021/05/20 09:48:27;;;;;;;8.25;4.67;;;;;;;20.36;100.00;99227.81;1583127;88;21127;-71
2021/05/20 09:50:58;;;;;;;6.50;3.60;;;;;;;20.19;100.00;99231.45;1623530;88;21086;-78
2021/05/20 09:53:26;;;;;;;20.95;14.38;;;;;;;20.05;100.00;99242.52;1602192;88;21665;-80
2021/05/20 09:55:57;;;;;;;4.12;2.75;;;;;;;19.99;100.00;99244.88;1600462;89;21062;-78
2021/05/20 09:58:28;;;;;;;4.10;3.33;;;;;;;20.13;100.00;99238.49;1611101;89;21155;-75
2021/05/20 10:00:56;;;;;;;16.00;7.42;;;;;;;20.38;100.00;99251.20;1611344;89;21674;-75
2021/05/20 10:03:26;;;;;;;22.32;13.62;;;;;;;20.60;100.00;99251.19;1609880;89;21154;-79
2021/05/20 10:08:24;;;;;;;23.00;4.20;;;;;;;20.93;100.00;99235.66;1587984;90;21042;-81
2021/05/20 10:10:53;;;;;;;25.23;16.73;;;;;;;21.13;100.00;99254.27;1584490;89;21668;-79
2021/05/20 10:13:22;;;;;;;13.83;7.08;;;;;;;21.30;100.00;99256.06;1585921;90;21657;-77
2021/05/20 10:15:49;;;;;;;5.45;2.40;;;;;;;21.41;100.00;99254.53;1585892;90;21074;-77
2021/05/20 10:18:21;;;;;;;5.75;3.30;;;;;;;21.63;100.00;99254.20;1587110;90;21042;-77
2021/05/20 10:20:50;;;;;;;5.20;3.47;;;;;;;21.89;100.00;99249.16;1585673;90;21040;-79
2021/05/20 10:23:20;;;;;;;2.95;2.75;;;;;;;21.97;100.00;99237.66;1588875;90;21112;-81
2021/05/20 10:25:50;;;;;;;3.62;3.33;;;;;;;21.85;100.00;99260.42;1586380;90;21046;-80
2021/05/20 10:28:18;;;;;;;14.10;7.20;;;;;;;21.61;100.00;99247.02;1585688;90;21059;-79
2021/05/20 10:30:51;;;;;;;19.80;16.55;;;;;;;21.60;100.00;99248.13;1588410;90;21291;-80
2021/05/20 10:33:20;;;;;;;7.85;3.35;;;;;;;21.74;100.00;99233.39;1584421;90;21066;-82
2021/05/20 10:35:51;;;;;;;5.90;4.35;;;;;;;21.92;100.00;99244.51;1584381;90;21235;-79
2021/05/20 10:38:34;;;;;;;4.25;3.22;;;;;;;22.28;100.00;99249.42;1559436;92;21612;-75
2021/05/20 10:41:26;;;;;;;4.10;2.85;;;;;;;22.51;100.00;99247.59;1564690;90;21102;-74
2021/05/20 10:44:08;;;;;;;4.12;3.62;;;;;;;22.69;100.00;99246.28;1571700;90;21142;-83
2021/05/20 10:47:02;;;;;;;12.40;8.00;;;;;;;22.84;100.00;99249.66;1564472;92;21138;-77
2021/05/20 10:49:55;;;;;;;6.28;3.02;;;;;;;22.88;100.00;99253.52;1566014;90;21065;-81
2021/05/20 10:52:42;;;;;;;9.28;6.00;;;;;;;22.87;100.00;99250.46;1542755;90;21689;-76
2021/05/20 10:55:16;;;;;;;6.60;4.40;;;;;;;22.54;100.00;99246.22;1554655;90;21091;-74
2021/05/20 10:57:56;;;;;;;9.20;4.75;;;;;;;22.24;100.00;99247.72;1533653;93;21069;-77
2021/05/20 11:00:37;;;;;;;3.77;2.80;;;;;;;22.14;100.00;99249.03;1512332;93;21095;-75
2021/05/20 11:03:04;;;;;;;9.58;4.17;;;;;;;22.21;100.00;99252.94;1530705;93;21120;-76
2021/05/20 11:05:47;;;;;;;6.12;3.15;;;;;;;22.50;100.00;99249.23;1545095;91;21597;-79
2021/05/20 11:08:34;;;;;;;5.40;3.12;;;;;;;22.81;100.00;99243.30;1552402;92;21636;-77
2021/05/20 11:11:04;;;;;;;10.10;5.00;;;;;;;23.02;100.00;99243.33;1554201;91;21049;-77
2021/05/20 11:13:45;;;;;;;6.42;4.00;;;;;;;23.08;100.00;99247.23;1553372;92;21128;-74
2021/05/20 11:16:22;;;;;;;4.95;3.47;;;;;;;22.85;100.00;99249.91;1553189;92;21128;-77
2021/05/20 11:18:51;;;;;;;7.53;4.70;;;;;;;22.68;100.00;99243.27;1540640;92;21139;-78
2021/05/20 11:21:20;;;;;;;3.98;3.37;;;;;;;22.72;100.00;99241.61;1551744;92;21106;-74
2021/05/20 11:23:48;;;;;;;5.80;2.67;;;;;;;22.84;100.00;99248.27;1551505;92;21682;-79
2021/05/20 11:26:29;;;;;;;8.50;3.15;;;;;;;23.06;100.00;99246.69;1551755;92;21153;-78
2021/05/20 11:29:05;;;;;;;8.60;5.87;;;;;;;23.23;100.00;99244.22;1550943;92;21081;-83
2021/05/20 11:31:31;;;;;;;4.62;3.85;;;;;;;23.52;100.00;99247.85;1551455;92;21138;-76
2021/05/20 11:34:24;;;;;;;16.17;7.92;;;;;;;23.57;100.00;99252.81;1551498;92;21189;-75
2021/05/20 11:36:44;;;;;;;4.97;3.70;;;;;;;23.57;100.00;99249.20;1600813;89;21099;-79
2021/05/20 11:39:14;;;;;;;4.53;3.70;;;;;;;23.49;100.00;99250.03;1605510;89;21138;-74
2021/05/20 11:41:42;;;;;;;4.20;3.80;;;;;;;23.16;100.00;99254.16;1606332;89;21037;-74
2021/05/20 11:44:20;;;;;;;8.00;3.70;;;;;;;22.97;100.00;99249.67;1606989;89;21081;-77